Thursday, November 23, 2017, 7:20 PM EST
Back to Local

KORH, Worcester Regional Airport

Location: Worcester, MA, United States Lat: 42.267
Local Time: 7:20 PM EST ( 0:20 GMT) Lon: -71.867
Time Zone: US/Eastern Elev: 1010 ft

Show me the last for .
Show Coded

Time T Td Feel RH Dir Speed Gust Alt SLP Vis Weather Sky Remarks
2017-11-23 18:54 30 17 23 58 290° 7 - 29.94 29.98 10 CLR 6-hr Min Temp (7pm): 30.0°F
6-hr Max Temp (7pm): 37.9°F
2017-11-23 17:54 32 15 27 49 240° 5 - 29.94 29.98 10 CLR None
2017-11-23 16:54 34 14 30 43 250° 5 - 29.94 29.98 10 CLR None
2017-11-23 15:54 36 14 31 39 260° 6 - 29.94 29.97 10 CLR None
2017-11-23 14:54 37 14 32 38 290° 7 - 29.94 29.97 10 CLR None
2017-11-23 13:54 37 13 29 36 300° 12 - 29.95 29.98 10 CLR None
2017-11-23 12:54 36 13 28 38 280° 12 - 29.95 29.99 10 CLR 6-hr Min Temp (1pm): 26.1°F
6-hr Max Temp (1pm): 37.0°F
2017-11-23 11:54 35 13 26 39 280° 13 - 29.97 30.01 10 CLR None
2017-11-23 10:54 33 14 25 44 290° 10 - 29.98 30.02 10 CLR None
2017-11-23 09:54 31 14 18 48 300° 15 22 29.98 30.02 10 CLR None
2017-11-23 08:54 29 15 19 55 290° 12 - 29.99 30.03 10 CLR None
2017-11-23 07:54 27 15 19 60 310° 8 - 29.99 30.03 10 CLR None
2017-11-23 06:54 26 16 16 65 310° 10 - 29.98 30.01 10 CLR 24-hr Precip Total (7am): 0.46"
6-hr Min Temp (7am): 25.0°F
6-hr Max Temp (7am): 30.9°F
2017-11-23 05:54 26 16 17 65 310° 9 - 29.98 30.01 10 CLR None
2017-11-23 04:54 27 17 19 65 290° 8 - 29.98 30.01 10 CLR None
2017-11-23 03:54 28 17 19 62 310° 10 - 29.95 29.98 10 CLR None
2017-11-23 02:54 29 18 19 63 310° 13 - 29.94 29.97 10 CLR None
2017-11-23 01:54 30 19 20 63 300° 14 - 29.95 29.97 10 CLR None
2017-11-23 00:54 31 20 17 63 320° 13 24 29.93 29.96 10 FEW028 6-hr Precip Total (1am): 0.00"
6-hr Min Temp (1am): 30.9°F
6-hr Max Temp (1am): 36.0°F
2017-11-22 23:54 33 22 21 63 300° 17 23 29.92 29.95 10 BKN029 Peak wind: 29 mph (26 kts) from 310° at 02 min
24-hr Min Temp (12am): 33.1°F
24-hr Max Temp (12am): 48.9°F
2017-11-22 22:54 33 25 20 71 300° 15 28 29.91 29.93 10 OVC030 1-hr Precip Total: Trace
2017-11-22 22:45 34 26 22 72 310° 16 23 29.91 - 10 SCT027 OVC032 1-hr Precip Total: Trace
2017-11-22 22:34 34 26 21 72 310° 17 25 29.91 - 10 OVC029 1-hr Precip Total: Trace
2017-11-22 22:18 34 27 21 75 320° 15 25 29.90 - 10 SCT025 OVC030 1-hr Precip Total: Trace
2017-11-22 21:54 35 26 24 69 310° 12 22 29.89 29.91 10 OVC028 Peak wind: 29 mph (26 kts) from 310° at 56 min
2017-11-22 21:45 35 26 24 69 300° 14 22 29.89 - 10 OVC028 Peak wind: 29 mph (26 kts) from 310° at 56 min
2017-11-22 20:54 35 25 22 66 310° 21 26 29.88 29.90 10 BKN035 Peak wind: 29 mph (26 kts) from 300° at 35 min
2017-11-22 19:54 36 27 23 69 310° 17 28 29.88 29.90 10 OVC031 Peak wind: 31 mph (27 kts) from 290° at 42 min

Support USWX by starting your Amazon purchase here.